Time;durP1;ratioP1;P1;durP2;ratioP2;P2;SDS_P1;SDS_P2;PMS_P1;PMS_P2;Temp;Humidity;BMP_temperature;BMP_pressure;BME280_temperature;BME280_humidity;BME280_pressure;Samples;Min_cycle;Max_cycle;Signal;HPM_P1;HPM_P2
2023/08/05 00:01:20;;;;;;;9.17;4.87;;;16.60;99.90;;;;;;5010489;28;20446;-76
2023/08/05 00:03:55;;;;;;;6.63;4.13;;;16.60;99.90;;;;;;5008459;28;20968;-77
2023/08/05 00:06:22;;;;;;;10.25;4.22;;;16.60;99.90;;;;;;5006061;28;20206;-77
2023/08/05 00:08:51;;;;;;;8.85;4.47;;;16.60;99.90;;;;;;5009623;28;20210;-76
2023/08/05 00:11:18;;;;;;;8.57;6.50;;;16.60;99.90;;;;;;5012651;28;20212;-76
2023/08/05 00:13:49;;;;;;;6.18;4.22;;;16.60;99.90;;;;;;5005056;28;20479;-77
2023/08/05 00:16:17;;;;;;;8.63;4.37;;;16.60;99.90;;;;;;5010921;28;20204;-77
2023/08/05 00:18:47;;;;;;;11.00;4.97;;;16.50;99.90;;;;;;5005721;28;20450;-77
2023/08/05 00:21:20;;;;;;;6.37;3.93;;;16.50;99.90;;;;;;5002438;28;20450;-76
2023/08/05 00:23:51;;;;;;;9.75;4.88;;;16.50;99.90;;;;;;4999105;28;20979;-76
2023/08/05 00:26:23;;;;;;;13.63;4.95;;;16.60;99.90;;;;;;4996103;28;20282;-76
2023/08/05 00:28:55;;;;;;;6.37;3.93;;;16.60;99.90;;;;;;5002727;28;20583;-76
2023/08/05 00:31:25;;;;;;;14.50;5.10;;;16.50;99.90;;;;;;5000623;28;20451;-76
2023/08/05 00:34:00;;;;;;;7.70;3.80;;;16.50;99.90;;;;;;5002989;28;20966;-75
2023/08/05 00:36:31;;;;;;;6.23;4.80;;;16.50;99.90;;;;;;5012548;28;20601;-75
2023/08/05 00:39:09;;;;;;;13.97;4.57;;;16.50;99.90;;;;;;5005351;28;20947;-76
2023/08/05 00:41:36;;;;;;;10.10;4.78;;;16.50;99.90;;;;;;4996574;28;20825;-76
2023/08/05 00:44:23;;;;;;;8.00;4.17;;;16.50;99.90;;;;;;5015584;28;20231;-77
2023/08/05 00:47:02;;;;;;;8.23;5.20;;;16.50;99.90;;;;;;5012390;28;20483;-75
2023/08/05 00:49:47;;;;;;;6.53;4.00;;;16.50;99.90;;;;;;4997911;28;20466;-75
2023/08/05 00:52:31;;;;;;;9.27;3.87;;;16.50;99.90;;;;;;5003719;28;20481;-74
2023/08/05 00:54:58;;;;;;;7.97;4.10;;;16.60;99.90;;;;;;5002430;28;20452;-77
2023/08/05 00:57:34;;;;;;;15.87;4.63;;;16.60;99.90;;;;;;5005388;28;20447;-77
2023/08/05 01:00:02;;;;;;;8.50;4.63;;;16.60;99.90;;;;;;5006255;28;20444;-74
2023/08/05 01:02:38;;;;;;;6.13;4.20;;;16.60;99.90;;;;;;5003445;28;20563;-75
2023/08/05 01:05:05;;;;;;;11.70;5.50;;;16.70;99.90;;;;;;5001176;28;20457;-76
2023/08/05 01:07:33;;;;;;;9.27;4.37;;;16.60;99.90;;;;;;4995795;28;20650;-74
2023/08/05 01:10:02;;;;;;;13.37;4.30;;;16.60;99.90;;;;;;4994545;28;20914;-75
2023/08/05 01:12:32;;;;;;;8.17;4.20;;;16.60;99.90;;;;;;4996279;28;20486;-76
2023/08/05 01:15:10;;;;;;;8.90;4.10;;;16.60;99.90;;;;;;5006573;28;20444;-76
2023/08/05 01:17:50;;;;;;;10.30;4.33;;;16.60;99.90;;;;;;4995408;28;20233;-76
2023/08/05 01:20:24;;;;;;;9.03;4.60;;;16.60;99.90;;;;;;5006819;28;20455;-75
2023/08/05 01:22:59;;;;;;;7.30;5.30;;;16.50;99.90;;;;;;4994432;28;20831;-76
2023/08/05 01:25:35;;;;;;;6.97;4.43;;;16.50;99.90;;;;;;5005487;28;20203;-75
2023/08/05 01:28:03;;;;;;;6.00;4.37;;;16.40;99.90;;;;;;4996755;28;20278;-75
2023/08/05 01:30:36;;;;;;;11.32;5.07;;;16.30;99.90;;;;;;5002547;28;20457;-75
2023/08/05 01:33:08;;;;;;;9.23;5.80;;;16.30;99.90;;;;;;5003648;28;20733;-75
2023/08/05 01:35:50;;;;;;;12.00;4.40;;;16.20;99.90;;;;;;5011617;28;20446;-76
2023/08/05 01:38:20;;;;;;;8.30;5.47;;;16.20;99.90;;;;;;5014724;28;20446;-76
2023/08/05 01:40:48;;;;;;;7.65;4.80;;;16.00;99.90;;;;;;5013466;28;20573;-76
2023/08/05 01:43:19;;;;;;;13.13;5.05;;;15.90;99.90;;;;;;5013915;28;20225;-76
2023/08/05 01:45:46;;;;;;;8.45;5.00;;;15.90;99.90;;;;;;5011448;28;20227;-75
2023/08/05 01:48:18;;;;;;;6.93;4.68;;;15.80;99.90;;;;;;5014906;28;20212;-75
2023/08/05 01:50:47;;;;;;;11.32;6.40;;;15.80;99.90;;;;;;5007649;28;20265;-75
2023/08/05 01:53:32;;;;;;;11.13;5.10;;;15.70;99.90;;;;;;5018599;28;20622;-76
2023/08/05 01:58:44;;;;;;;12.10;5.18;;;15.60;99.90;;;;;;5007432;28;20269;-77
2023/08/05 02:01:12;;;;;;;8.65;5.18;;;15.60;99.90;;;;;;5002425;28;20619;-76
2023/08/05 02:03:46;;;;;;;12.50;5.53;;;15.50;99.90;;;;;;5013929;28;20227;-76
2023/08/05 02:06:14;;;;;;;9.23;5.20;;;15.50;99.90;;;;;;5010763;28;20241;-76
2023/08/05 02:08:41;;;;;;;8.13;5.38;;;15.50;99.90;;;;;;5020553;28;20203;-76
2023/08/05 02:11:17;;;;;;;6.53;4.68;;;15.40;99.90;;;;;;5017659;28;20610;-77
2023/08/05 02:13:48;;;;;;;9.90;5.57;;;15.30;99.90;;;;;;5008920;28;20229;-77
2023/08/05 02:16:22;;;;;;;8.63;5.10;;;15.30;99.90;;;;;;5002232;28;20206;-76
2023/08/05 02:18:55;;;;;;;11.65;6.50;;;15.30;99.90;;;;;;4998969;28;20246;-76
2023/08/05 02:21:24;;;;;;;12.20;7.32;;;15.20;99.90;;;;;;5004069;28;20231;-76
2023/08/05 02:23:52;;;;;;;9.13;5.90;;;15.10;99.90;;;;;;5003403;28;20222;-76
2023/08/05 02:26:21;;;;;;;12.10;6.32;;;15.10;99.90;;;;;;5011893;28;20276;-76
2023/08/05 02:28:52;;;;;;;13.30;6.75;;;15.00;99.90;;;;;;5008275;28;20198;-76
2023/08/05 02:31:21;;;;;;;6.97;6.28;;;15.00;99.90;;;;;;5016506;28;20202;-75
2023/08/05 02:33:48;;;;;;;13.48;6.80;;;14.90;99.90;;;;;;5007140;28;20227;-77
2023/08/05 02:36:15;;;;;;;13.68;6.65;;;14.90;99.90;;;;;;5009222;28;20210;-75
2023/08/05 02:38:43;;;;;;;8.57;6.70;;;14.80;99.90;;;;;;5016976;28;20288;-76
2023/08/05 02:41:17;;;;;;;11.73;7.15;;;14.70;99.90;;;;;;5017119;28;20693;-75
2023/08/05 02:43:50;;;;;;;9.90;7.32;;;14.70;99.90;;;;;;5010190;28;20714;-76
2023/08/05 02:46:20;;;;;;;13.32;7.10;;;14.70;99.90;;;;;;5001710;28;20216;-76
2023/08/05 02:48:51;;;;;;;8.77;6.22;;;14.60;99.90;;;;;;5001959;28;20205;-77
2023/08/05 02:51:21;;;;;;;7.05;6.28;;;14.60;99.90;;;;;;4996437;28;20216;-76
2023/08/05 02:53:55;;;;;;;9.85;6.38;;;14.70;99.90;;;;;;5002629;28;20276;-76
2023/08/05 02:56:22;;;;;;;12.38;6.90;;;14.60;99.90;;;;;;5003357;28;20231;-76
2023/08/05 02:58:53;;;;;;;14.77;7.95;;;14.60;99.90;;;;;;5007932;28;20197;-76
2023/08/05 03:01:35;;;;;;;14.02;6.55;;;14.50;99.90;;;;;;4997321;28;20297;-77
2023/08/05 03:04:05;;;;;;;13.55;7.95;;;14.50;99.90;;;;;;5002630;28;20220;-77
2023/08/05 03:06:45;;;;;;;12.55;6.85;;;14.50;99.90;;;;;;5015728;28;20205;-76
2023/08/05 03:09:12;;;;;;;9.43;6.57;;;14.40;99.90;;;;;;5011919;28;20205;-76
2023/08/05 03:11:45;;;;;;;9.13;6.13;;;14.40;99.90;;;;;;5002144;28;20739;-77
2023/08/05 03:14:14;;;;;;;11.98;7.40;;;14.40;99.90;;;;;;4999946;28;20235;-77
2023/08/05 03:16:45;;;;;;;6.25;5.22;;;14.40;99.90;;;;;;5008130;28;20212;-76
2023/08/05 03:19:12;;;;;;;10.63;5.82;;;14.40;99.90;;;;;;5010889;28;20566;-77
2023/08/05 03:21:48;;;;;;;11.90;7.63;;;14.50;99.90;;;;;;4996638;28;20216;-77
2023/08/05 03:24:17;;;;;;;9.20;7.38;;;14.40;99.90;;;;;;4990597;28;20222;-77
2023/08/05 03:26:44;;;;;;;12.52;7.32;;;14.40;99.90;;;;;;5014376;28;20251;-79
2023/08/05 03:29:24;;;;;;;11.90;6.72;;;14.30;99.90;;;;;;5001516;28;20669;-78
2023/08/05 03:31:55;;;;;;;8.52;6.43;;;14.30;99.90;;;;;;4982465;28;20205;-77
2023/08/05 03:34:29;;;;;;;12.38;7.25;;;14.30;99.90;;;;;;5011622;28;20224;-78
2023/08/05 03:37:15;;;;;;;10.20;6.95;;;14.30;99.90;;;;;;4996177;28;20201;-77
2023/08/05 03:40:05;;;;;;;11.63;6.97;;;14.20;99.90;;;;;;5003632;28;20208;-78
2023/08/05 03:42:35;;;;;;;14.65;7.65;;;14.20;99.90;;;;;;5008732;28;20253;-77
2023/08/05 03:45:05;;;;;;;11.13;6.75;;;14.20;99.90;;;;;;4998577;28;20296;-76
2023/08/05 03:47:43;;;;;;;;;;;;;;;;;;;;;
2023/08/05 03:50:15;;;;;;;12.48;7.13;;;14.20;99.90;;;;;;4993188;28;20197;-76
2023/08/05 03:52:43;;;;;;;13.23;7.90;;;14.10;99.90;;;;;;5009771;28;20773;-76
2023/08/05 03:55:10;;;;;;;13.27;7.10;;;14.20;99.90;;;;;;5003539;28;20220;-76
2023/08/05 03:57:42;;;;;;;10.55;6.47;;;14.20;99.90;;;;;;5005588;28;20244;-75
2023/08/05 04:00:21;;;;;;;10.73;6.80;;;14.30;99.90;;;;;;4996181;28;20198;-77
2023/08/05 04:02:49;;;;;;;15.65;7.85;;;14.30;99.90;;;;;;5000683;28;20601;-76
2023/08/05 04:05:27;;;;;;;14.43;7.30;;;14.30;99.90;;;;;;4995731;28;20303;-76
2023/08/05 04:07:58;;;;;;;13.45;7.55;;;14.30;99.90;;;;;;5007494;28;20555;-75
2023/08/05 04:10:38;;;;;;;11.60;7.38;;;14.30;99.90;;;;;;5001115;28;20648;-76
2023/08/05 04:13:11;;;;;;;8.85;7.55;;;14.30;99.90;;;;;;4995570;28;20233;-77
2023/08/05 04:19:00;;;;;;;14.02;7.28;;;14.40;99.90;;;;;;5007684;28;20217;-77
2023/08/05 04:21:35;;;;;;;10.45;6.70;;;14.40;99.90;;;;;;5003176;28;20213;-77
2023/08/05 04:24:03;;;;;;;13.20;7.97;;;14.50;99.90;;;;;;5005835;28;20249;-77
2023/08/05 04:26:35;;;;;;;10.75;6.78;;;14.50;99.90;;;;;;4997494;28;20201;-78
2023/08/05 04:29:02;;;;;;;12.45;7.05;;;14.50;99.90;;;;;;5003558;28;20669;-77
2023/08/05 04:31:32;;;;;;;8.77;6.63;;;14.60;99.90;;;;;;5008139;28;20233;-77
2023/08/05 04:33:59;;;;;;;14.48;6.85;;;14.60;99.90;;;;;;4997190;28;20224;-75
2023/08/05 04:36:26;;;;;;;13.15;8.38;;;14.60;99.90;;;;;;4999855;28;20509;-77
2023/08/05 04:38:52;;;;;;;7.70;6.35;;;14.70;99.90;;;;;;4995517;28;20242;-77
2023/08/05 04:41:19;;;;;;;10.80;7.22;;;14.70;99.90;;;;;;4998277;28;20292;-77
2023/08/05 04:43:46;;;;;;;9.65;6.55;;;14.80;99.90;;;;;;5007879;28;20587;-77
2023/08/05 04:46:13;;;;;;;17.33;8.30;;;14.80;99.90;;;;;;5004053;28;20667;-78
2023/08/05 04:48:41;;;;;;;10.93;8.60;;;14.90;99.90;;;;;;4999225;28;20249;-78
2023/08/05 04:51:08;;;;;;;12.35;6.85;;;15.20;99.90;;;;;;5005967;28;20209;-77
2023/08/05 04:53:35;;;;;;;15.47;7.27;;;15.70;99.90;;;;;;5000232;28;20679;-77
2023/08/05 04:56:02;;;;;;;11.53;6.73;;;16.20;99.90;;;;;;5002617;28;20857;-76
2023/08/05 04:58:29;;;;;;;9.73;6.57;;;16.50;99.90;;;;;;5004488;28;20470;-76
2023/08/05 05:00:59;;;;;;;12.13;6.13;;;16.70;99.90;;;;;;5011856;28;20295;-76
2023/08/05 05:03:26;;;;;;;11.03;5.20;;;17.10;99.90;;;;;;5002120;28;20470;-76
2023/08/05 05:05:55;;;;;;;5.80;4.63;;;17.70;99.90;;;;;;5011640;28;20452;-76
2023/08/05 05:08:22;;;;;;;5.97;4.60;;;18.60;99.90;;;;;;5001198;28;20451;-75
2023/08/05 05:10:49;;;;;;;6.97;4.03;;;19.30;99.90;;;;;;5011714;28;20443;-77
2023/08/05 05:13:16;;;;;;;6.43;4.13;;;20.20;99.90;;;;;;5008633;28;20518;-76
2023/08/05 05:15:43;;;;;;;9.67;3.80;;;20.90;99.90;;;;;;5016373;28;20478;-76
2023/08/05 05:18:10;;;;;;;10.27;4.27;;;21.30;99.90;;;;;;5015908;28;20502;-76
2023/08/05 05:20:37;;;;;;;7.07;4.60;;;22.00;99.90;;;;;;5004356;28;20455;-76
2023/08/05 05:23:06;;;;;;;6.67;4.47;;;22.90;99.90;;;;;;5016289;28;21041;-76
2023/08/05 05:25:33;;;;;;;9.77;4.77;;;23.70;99.90;;;;;;5003011;28;20507;-76
2023/08/05 05:28:00;;;;;;;8.03;4.83;;;24.40;99.90;;;;;;5004637;28;20515;-77
2023/08/05 05:30:27;;;;;;;9.37;3.73;;;24.80;98.90;;;;;;5012980;28;20871;-76
2023/08/05 05:32:56;;;;;;;8.20;3.60;;;25.60;96.90;;;;;;4999941;28;20503;-77
2023/08/05 05:35:23;;;;;;;8.13;4.60;;;26.20;94.90;;;;;;4998129;28;20812;-76
2023/08/05 05:37:49;;;;;;;7.10;4.23;;;26.50;93.80;;;;;;5000341;28;20452;-76
2023/08/05 05:40:21;;;;;;;6.67;4.83;;;26.90;92.70;;;;;;5006692;28;20444;-76
2023/08/05 05:42:49;;;;;;;10.47;4.47;;;27.30;91.90;;;;;;5009938;28;20504;-76
2023/08/05 05:45:16;;;;;;;6.67;3.80;;;27.40;90.90;;;;;;5011013;28;20451;-77
2023/08/05 05:47:44;;;;;;;6.83;3.90;;;27.90;90.20;;;;;;5006505;28;20834;-74
2023/08/05 05:50:11;;;;;;;5.90;3.60;;;28.10;89.20;;;;;;5006292;28;20451;-73
2023/08/05 05:52:38;;;;;;;5.90;3.90;;;28.50;88.30;;;;;;5004192;28;20880;-76
2023/08/05 05:55:08;;;;;;;5.43;3.50;;;28.80;87.40;;;;;;5001607;28;20497;-75
2023/08/05 05:57:37;;;;;;;5.20;3.23;;;29.00;86.30;;;;;;5010540;28;20443;-74
2023/08/05 06:00:05;;;;;;;5.63;3.67;;;29.20;84.80;;;;;;4998882;28;20444;-73
2023/08/05 06:02:32;;;;;;;6.67;3.70;;;29.40;84.40;;;;;;5006804;28;20444;-73
2023/08/05 06:04:59;;;;;;;6.63;3.80;;;29.70;83.90;;;;;;5005989;28;20447;-77
2023/08/05 06:07:26;;;;;;;4.27;2.93;;;30.00;82.60;;;;;;5003009;28;20484;-73
2023/08/05 06:09:53;;;;;;;14.20;3.13;;;30.20;81.30;;;;;;5010105;28;20447;-72
2023/08/05 06:12:22;;;;;;;6.87;3.13;;;30.30;81.20;;;;;;5000086;28;20540;-71
2023/08/05 06:14:50;;;;;;;6.13;3.10;;;30.70;80.70;;;;;;5003377;28;20579;-72
2023/08/05 06:17:18;;;;;;;7.67;2.90;;;29.80;79.30;;;;;;5000510;28;20444;-72
2023/08/05 06:19:45;;;;;;;5.50;2.90;;;30.10;80.50;;;;;;5014488;28;20452;-72
2023/08/05 06:22:12;;;;;;;5.00;2.77;;;29.80;80.50;;;;;;5005476;28;20549;-73
2023/08/05 06:24:39;;;;;;;3.97;2.43;;;30.10;80.80;;;;;;5003614;28;20543;-73
2023/08/05 06:27:07;;;;;;;4.63;2.23;;;30.40;79.50;;;;;;5004333;28;20479;-73
2023/08/05 06:29:34;;;;;;;9.87;3.27;;;30.60;78.80;;;;;;5013608;28;20532;-72
2023/08/05 06:32:04;;;;;;;4.83;2.57;;;30.60;78.40;;;;;;5008027;28;20470;-73
2023/08/05 06:34:31;;;;;;;3.83;2.77;;;30.70;78.60;;;;;;5011443;28;20886;-72
2023/08/05 06:36:57;;;;;;;3.67;2.43;;;30.50;77.00;;;;;;5004041;28;20489;-75
2023/08/05 06:39:24;;;;;;;5.87;2.67;;;30.20;77.60;;;;;;5008415;28;20530;-74
2023/08/05 06:41:52;;;;;;;5.43;2.50;;;30.60;78.80;;;;;;5003351;28;20448;-73
2023/08/05 06:44:19;;;;;;;6.53;2.20;;;31.00;78.10;;;;;;5004841;28;20987;-74
2023/08/05 06:46:46;;;;;;;9.23;2.93;;;31.00;77.10;;;;;;5005513;28;20776;-76
2023/08/05 06:49:14;;;;;;;4.80;2.70;;;31.10;77.40;;;;;;5011069;28;20527;-72
2023/08/05 06:51:42;;;;;;;3.43;1.97;;;31.40;76.90;;;;;;4999261;28;20532;-73
2023/08/05 06:54:10;;;;;;;6.17;2.70;;;31.00;77.40;;;;;;4998272;28;21073;-73
2023/08/05 06:56:37;;;;;;;7.63;3.40;;;31.30;76.80;;;;;;5000507;28;20507;-73
2023/08/05 06:59:04;;;;;;;6.80;2.53;;;31.60;75.70;;;;;;5001999;28;20445;-75
2023/08/05 07:01:32;;;;;;;7.27;2.80;;;31.40;75.80;;;;;;4998147;28;20528;-74
2023/08/05 07:03:59;;;;;;;4.30;2.80;;;31.60;76.10;;;;;;5006925;28;20467;-76
2023/08/05 07:06:27;;;;;;;3.40;2.23;;;31.30;75.00;;;;;;5004379;28;20539;-76
2023/08/05 07:08:54;;;;;;;3.13;1.70;;;31.90;75.20;;;;;;5006302;28;20526;-73
2023/08/05 07:11:21;;;;;;;4.90;2.40;;;32.20;72.80;;;;;;5005431;28;20449;-72
2023/08/05 07:13:48;;;;;;;3.23;2.03;;;31.50;72.30;;;;;;5005226;28;20487;-74
2023/08/05 07:16:15;;;;;;;4.10;2.33;;;31.80;70.60;;;;;;5007499;28;20618;-73
2023/08/05 07:18:42;;;;;;;4.23;2.00;;;31.90;71.00;;;;;;5007417;28;20821;-74
2023/08/05 07:21:08;;;;;;;2.60;1.70;;;31.80;69.30;;;;;;5003863;28;20461;-75
2023/08/05 07:23:37;;;;;;;3.97;1.97;;;31.70;69.20;;;;;;5009753;28;20514;-75
2023/08/05 07:26:04;;;;;;;2.80;1.87;;;31.60;70.70;;;;;;5006317;28;20473;-73
2023/08/05 07:28:30;;;;;;;4.70;2.37;;;31.60;71.50;;;;;;5007763;28;20531;-74
2023/08/05 07:31:04;;;;;;;2.57;1.90;;;31.70;70.40;;;;;;5000038;28;20551;-73
2023/08/05 07:33:31;;;;;;;3.07;2.20;;;31.60;69.50;;;;;;5005577;28;20918;-73
2023/08/05 07:36:00;;;;;;;5.77;2.27;;;31.30;69.40;;;;;;4995225;28;20463;-72
2023/08/05 07:38:28;;;;;;;2.83;1.70;;;31.50;69.30;;;;;;4999017;28;20468;-72
2023/08/05 07:40:58;;;;;;;6.43;2.07;;;32.10;68.20;;;;;;5008639;28;20476;-73
2023/08/05 07:43:29;;;;;;;3.20;1.90;;;32.20;66.80;;;;;;5005860;28;20496;-73
2023/08/05 07:45:59;;;;;;;2.83;2.20;;;31.70;67.00;;;;;;5000980;28;20455;-73
2023/08/05 07:48:27;;;;;;;6.33;2.27;;;31.70;66.60;;;;;;5002377;28;20790;-72
2023/08/05 07:50:54;;;;;;;5.50;2.83;;;32.00;67.40;;;;;;5006529;28;20475;-71
2023/08/05 07:53:23;;;;;;;4.60;2.60;;;32.20;67.60;;;;;;5005813;28;20491;-71
2023/08/05 07:55:52;;;;;;;4.90;2.10;;;32.20;66.30;;;;;;5005204;28;20432;-73
2023/08/05 07:58:21;;;;;;;4.77;2.40;;;32.40;66.50;;;;;;5003349;28;20440;-72
2023/08/05 08:00:48;;;;;;;3.43;2.07;;;32.50;64.20;;;;;;5006956;28;20448;-73
2023/08/05 08:03:16;;;;;;;3.10;1.83;;;31.90;64.80;;;;;;4999634;28;20492;-75
2023/08/05 08:05:42;;;;;;;3.77;2.07;;;30.50;66.10;;;;;;5006445;28;20519;-72
2023/08/05 08:08:09;;;;;;;6.80;2.47;;;29.50;68.20;;;;;;5000063;28;20437;-72
2023/08/05 08:10:36;;;;;;;6.23;2.30;;;28.70;70.50;;;;;;5015835;28;20441;-73
2023/08/05 08:13:03;;;;;;;4.30;2.30;;;28.00;73.90;;;;;;4997345;28;20651;-74
2023/08/05 08:15:31;;;;;;;2.87;1.37;;;28.00;74.30;;;;;;5021467;28;20504;-76
2023/08/05 08:17:58;;;;;;;3.47;2.20;;;28.50;71.50;;;;;;5017969;28;20487;-75
2023/08/05 08:20:25;;;;;;;7.50;2.60;;;29.20;71.80;;;;;;5014074;28;20543;-74
2023/08/05 08:22:52;;;;;;;6.90;2.13;;;30.00;69.90;;;;;;5011885;28;20475;-76
2023/08/05 08:25:19;;;;;;;2.90;2.07;;;29.70;69.00;;;;;;5005692;28;20448;-75
2023/08/05 08:27:46;;;;;;;4.10;2.13;;;29.60;71.00;;;;;;5012449;28;20478;-77
2023/08/05 08:30:13;;;;;;;6.83;3.43;;;29.30;69.00;;;;;;5007976;28;20540;-76
2023/08/05 08:32:43;;;;;;;4.60;2.07;;;28.60;70.60;;;;;;5000962;28;20445;-78
2023/08/05 08:35:10;;;;;;;3.77;2.13;;;28.70;72.40;;;;;;5006899;28;20520;-78
2023/08/05 08:37:37;;;;;;;7.83;2.63;;;29.50;71.70;;;;;;5017082;28;20456;-78
2023/08/05 08:40:07;;;;;;;2.50;1.83;;;30.30;69.90;;;;;;5010933;28;20519;-80
2023/08/05 08:42:34;;;;;;;4.43;2.13;;;30.50;67.00;;;;;;5003418;28;20985;-77
2023/08/05 08:45:02;;;;;;;2.30;1.90;;;29.00;68.70;;;;;;5002891;28;20445;-78
2023/08/05 08:47:29;;;;;;;3.50;1.63;;;27.80;72.10;;;;;;5001680;28;20468;-77
2023/08/05 08:49:59;;;;;;;3.17;2.20;;;28.40;72.00;;;;;;4997446;28;20452;-77
2023/08/05 08:52:28;;;;;;;8.00;1.90;;;29.20;72.90;;;;;;5004716;28;20475;-77
2023/08/05 08:54:56;;;;;;;3.50;1.70;;;30.10;70.70;;;;;;5006281;28;20467;-79
2023/08/05 08:57:23;;;;;;;3.90;1.83;;;30.50;68.00;;;;;;5005040;28;20495;-79
2023/08/05 08:59:51;;;;;;;3.43;2.23;;;31.20;66.00;;;;;;5007623;28;20544;-78
2023/08/05 09:02:23;;;;;;;3.30;2.40;;;31.70;64.20;;;;;;5006808;28;20440;-79
2023/08/05 09:04:53;;;;;;;4.37;2.80;;;32.00;64.00;;;;;;5009504;28;20535;-77
2023/08/05 09:07:22;;;;;;;4.63;2.00;;;30.90;64.70;;;;;;5003535;28;20907;-77
2023/08/05 09:09:50;;;;;;;3.80;2.27;;;29.40;69.10;;;;;;5010905;28;20524;-79
2023/08/05 09:12:17;;;;;;;4.80;2.63;;;28.20;71.20;;;;;;5009075;28;20944;-79
2023/08/05 09:14:44;;;;;;;3.23;1.87;;;28.10;71.20;;;;;;5008724;28;20487;-78
2023/08/05 09:17:14;;;;;;;3.63;1.90;;;27.70;72.90;;;;;;5009144;28;20527;-80
2023/08/05 09:19:43;;;;;;;4.23;2.63;;;27.40;73.60;;;;;;5004778;28;20530;-77
2023/08/05 09:22:10;;;;;;;3.47;2.30;;;26.60;76.00;;;;;;5010643;28;20444;-77
2023/08/05 09:24:38;;;;;;;4.47;2.50;;;25.80;78.00;;;;;;5002818;28;20455;-77
2023/08/05 09:27:06;;;;;;;4.77;2.43;;;25.80;79.10;;;;;;5005139;28;20523;-75
2023/08/05 09:29:36;;;;;;;4.03;2.13;;;26.10;80.10;;;;;;5001852;28;20531;-77
2023/08/05 09:32:04;;;;;;;5.33;2.90;;;26.00;78.90;;;;;;5009156;28;20534;-77
2023/08/05 09:34:37;;;;;;;3.37;2.30;;;25.10;80.00;;;;;;4993430;28;20854;-77
2023/08/05 09:37:04;;;;;;;6.13;2.73;;;24.80;80.10;;;;;;4996508;28;20506;-76
2023/08/05 09:39:47;;;;;;;3.27;1.73;;;24.80;81.20;;;;;;5007462;28;20992;-77
2023/08/05 09:42:23;;;;;;;4.13;2.27;;;24.90;80.70;;;;;;5005680;28;20506;-77
2023/08/05 09:44:52;;;;;;;2.97;2.20;;;25.80;79.80;;;;;;5011736;28;20472;-81
2023/08/05 09:47:21;;;;;;;7.97;2.40;;;26.40;77.40;;;;;;5011669;28;20898;-79
2023/08/05 09:49:49;;;;;;;4.50;2.93;;;26.30;77.30;;;;;;5004104;28;20455;-81
2023/08/05 09:52:18;;;;;;;2.87;2.10;;;26.40;78.00;;;;;;5008046;28;20515;-82
2023/08/05 09:54:54;;;;;;;3.00;2.00;;;26.10;77.90;;;;;;5023546;28;20886;-79
2023/08/05 09:57:22;;;;;;;4.17;2.30;;;26.10;78.60;;;;;;5008493;28;20463;-81
2023/08/05 09:59:53;;;;;;;4.33;2.53;;;25.80;79.80;;;;;;5012031;28;20537;-81
2023/08/05 10:02:25;;;;;;;5.70;2.40;;;25.30;80.50;;;;;;5004409;28;20471;-81
2023/08/05 10:04:54;;;;;;;3.30;2.47;;;25.50;81.50;;;;;;5010340;28;20467;-81
2023/08/05 10:07:22;;;;;;;4.67;2.60;;;25.40;80.70;;;;;;4998410;28;20476;-82
2023/08/05 10:09:52;;;;;;;6.00;2.80;;;25.10;82.00;;;;;;5008493;28;20459;-81
2023/08/05 10:12:22;;;;;;;5.00;2.83;;;24.80;83.30;;;;;;5005825;28;20446;-82
2023/08/05 10:14:49;;;;;;;6.33;2.90;;;24.30;84.10;;;;;;5002394;28;20507;-81
2023/08/05 10:17:17;;;;;;;5.63;3.63;;;24.00;85.00;;;;;;5003049;28;20471;-81
2023/08/05 10:19:51;;;;;;;8.57;2.63;;;24.00;86.20;;;;;;5012226;28;20452;-80
2023/08/05 10:22:22;;;;;;;5.20;3.03;;;23.80;87.00;;;;;;5006895;28;20448;-81
2023/08/05 10:24:56;;;;;;;3.10;2.57;;;23.90;86.70;;;;;;5005796;28;20457;-81
2023/08/05 10:27:40;;;;;;;4.70;2.33;;;23.60;85.90;;;;;;5008432;28;20446;-80
2023/08/05 10:30:13;;;;;;;4.50;3.40;;;23.80;87.50;;;;;;5005841;28;20526;-80
2023/08/05 10:32:51;;;;;;;8.67;2.67;;;24.10;86.50;;;;;;5009181;28;20818;-81
2023/08/05 10:35:29;;;;;;;3.23;2.20;;;24.70;86.00;;;;;;5000514;28;20484;-80
2023/08/05 10:38:10;;;;;;;3.83;2.30;;;25.10;84.20;;;;;;5007539;28;20475;-81
2023/08/05 10:40:49;;;;;;;4.17;2.67;;;25.60;83.80;;;;;;5014618;28;20448;-80
2023/08/05 10:43:33;;;;;;;5.60;2.60;;;25.90;81.40;;;;;;5009175;28;20539;-79
2023/08/05 10:46:02;;;;;;;8.70;2.30;;;25.60;81.70;;;;;;5012003;28;20439;-81
2023/08/05 10:48:30;;;;;;;4.50;2.70;;;25.50;83.00;;;;;;5009803;28;20877;-80
2023/08/05 10:50:58;;;;;;;4.60;2.30;;;25.50;82.20;;;;;;5004543;28;20451;-81
2023/08/05 10:53:25;;;;;;;4.00;2.20;;;25.60;81.50;;;;;;5004359;28;20590;-81
2023/08/05 10:55:58;;;;;;;3.63;2.60;;;25.60;82.90;;;;;;5005032;28;20579;-79
2023/08/05 10:58:28;;;;;;;5.70;2.20;;;25.70;80.90;;;;;;5002829;28;20447;-80
2023/08/05 11:00:59;;;;;;;5.27;2.53;;;25.30;82.40;;;;;;5014355;28;20480;-80
2023/08/05 11:03:39;;;;;;;3.90;2.37;;;25.40;82.30;;;;;;5010826;28;20490;-80
2023/08/05 11:06:06;;;;;;;5.57;2.87;;;25.50;82.30;;;;;;4991573;28;20478;-79
2023/08/05 11:08:34;;;;;;;4.67;2.50;;;25.40;81.50;;;;;;5013891;28;20460;-81
2023/08/05 11:11:04;;;;;;;4.13;2.13;;;25.40;82.30;;;;;;5015409;28;20446;-81
2023/08/05 11:13:36;;;;;;;5.03;2.53;;;25.30;81.80;;;;;;5009230;28;20475;-81
2023/08/05 11:16:09;;;;;;;3.37;2.47;;;25.00;83.70;;;;;;5013950;28;20471;-81
2023/08/05 11:18:36;;;;;;;2.60;2.20;;;24.60;83.60;;;;;;5009697;28;20449;-80
2023/08/05 11:21:05;;;;;;;3.43;2.23;;;24.70;83.70;;;;;;5010301;28;20484;-81
2023/08/05 11:23:33;;;;;;;6.20;2.27;;;24.80;83.80;;;;;;5005592;28;20491;-80
2023/08/05 11:26:01;;;;;;;3.43;2.13;;;24.70;84.30;;;;;;5010012;28;20441;-81
2023/08/05 11:28:30;;;;;;;5.40;2.80;;;24.50;85.40;;;;;;5007588;28;20479;-80
2023/08/05 11:30:58;;;;;;;4.77;2.50;;;24.60;86.40;;;;;;5000888;28;20451;-81
2023/08/05 11:33:24;;;;;;;5.00;3.03;;;24.40;84.60;;;;;;4999604;28;20496;-80
2023/08/05 11:35:53;;;;;;;5.60;2.40;;;23.70;84.80;;;;;;5002294;28;20520;-80
2023/08/05 11:38:21;;;;;;;3.20;2.03;;;23.70;86.60;;;;;;4998550;28;20944;-81
2023/08/05 11:40:49;;;;;;;5.80;2.07;;;24.00;86.50;;;;;;5008932;28;20819;-81
2023/08/05 11:43:19;;;;;;;3.33;2.50;;;24.40;86.80;;;;;;5008487;28;20468;-81
2023/08/05 11:45:48;;;;;;;4.53;2.20;;;24.80;85.40;;;;;;5003537;28;20475;-81
2023/08/05 11:48:22;;;;;;;4.47;3.27;;;24.90;84.20;;;;;;5014482;28;20489;-80
2023/08/05 11:50:50;;;;;;;6.03;2.60;;;25.10;85.60;;;;;;5007270;28;20568;-81
2023/08/05 11:53:18;;;;;;;2.83;2.20;;;25.10;83.70;;;;;;5003252;28;21022;-82
2023/08/05 11:55:46;;;;;;;3.20;2.10;;;25.00;83.70;;;;;;5001099;28;20542;-81
2023/08/05 11:58:14;;;;;;;4.97;2.87;;;25.20;83.80;;;;;;4996743;28;20957;-81
2023/08/05 12:00:47;;;;;;;8.23;2.67;;;25.00;84.10;;;;;;5005491;28;20444;-80
2023/08/05 12:03:16;;;;;;;2.90;2.57;;;25.00;84.80;;;;;;5008465;28;20552;-81
2023/08/05 12:05:44;;;;;;;3.60;2.40;;;25.10;83.90;;;;;;4997519;28;20544;-81
2023/08/05 12:08:12;;;;;;;4.20;2.20;;;25.30;83.90;;;;;;5008828;28;20459;-81
2023/08/05 12:10:39;;;;;;;2.70;2.33;;;25.60;83.30;;;;;;4999161;28;20455;-79
2023/08/05 12:13:08;;;;;;;3.43;2.43;;;25.60;82.70;;;;;;5004946;28;20492;-81
2023/08/05 12:15:35;;;;;;;5.07;2.87;;;26.00;82.20;;;;;;5011648;28;20511;-81
2023/08/05 12:18:05;;;;;;;3.37;1.97;;;26.20;81.00;;;;;;5004629;28;20928;-82
2023/08/05 12:20:34;;;;;;;14.50;8.77;;;26.10;80.40;;;;;;4997710;28;20464;-81
2023/08/05 12:23:03;;;;;;;6.03;2.70;;;26.10;81.10;;;;;;4997690;28;20536;-81
2023/08/05 12:25:31;;;;;;;4.70;2.17;;;26.10;81.10;;;;;;4996691;28;20848;-82
2023/08/05 12:27:59;;;;;;;3.07;2.50;;;25.70;81.70;;;;;;4999906;28;20473;-81
2023/08/05 12:30:26;;;;;;;4.00;3.30;;;25.60;82.40;;;;;;4999821;28;20489;-81
2023/08/05 12:32:56;;;;;;;3.43;2.10;;;25.70;83.30;;;;;;5003548;28;20479;-81
2023/08/05 12:35:25;;;;;;;4.10;2.37;;;25.80;83.00;;;;;;5000882;28;20485;-81
2023/08/05 12:37:52;;;;;;;3.93;2.57;;;25.70;83.40;;;;;;5007284;28;20436;-82
2023/08/05 12:40:20;;;;;;;2.80;1.80;;;26.00;83.90;;;;;;5009073;28;20527;-81
2023/08/05 12:42:47;;;;;;;2.77;2.23;;;25.70;82.50;;;;;;5008765;28;20559;-80
2023/08/05 12:45:14;;;;;;;3.50;2.43;;;25.60;83.20;;;;;;5002932;28;20494;-80
2023/08/05 12:47:41;;;;;;;3.33;2.20;;;25.50;82.70;;;;;;5006102;28;20855;-80
2023/08/05 12:50:09;;;;;;;2.60;2.40;;;25.20;83.20;;;;;;5004973;28;20490;-81
2023/08/05 12:52:37;;;;;;;4.27;2.60;;;25.00;83.20;;;;;;5009491;28;20478;-80
2023/08/05 12:55:06;;;;;;;3.60;2.47;;;24.60;84.00;;;;;;5007392;28;20519;-81
2023/08/05 12:57:33;;;;;;;7.97;3.03;;;24.80;85.10;;;;;;5008213;28;20765;-75
2023/08/05 13:00:00;;;;;;;2.73;2.20;;;25.00;84.20;;;;;;5006569;28;20509;-81
2023/08/05 13:02:29;;;;;;;4.00;3.10;;;25.10;83.60;;;;;;5005486;28;20539;-77
2023/08/05 13:04:57;;;;;;;1.93;1.47;;;25.00;83.50;;;;;;5006783;28;20452;-77